Time;durP1;ratioP1;P1;durP2;ratioP2;P2;SDS_P1;SDS_P2;PMS_P1;PMS_P2;Temp;Humidity;BMP_temperature;BMP_pressure;BME280_temperature;BME280_humidity;BME280_pressure;Samples;Min_cycle;Max_cycle;Signal;HPM_P1;HPM_P2
2022/06/27 00:00:46;;;;;;;;;;;;;;;24.23;57.32;99645.78;2077239;28;19952;-56
2022/06/27 00:01:47;;;;;;;;;;;;;;;24.23;57.49;99640.28;2074652;28;19916;-54
2022/06/27 00:02:47;;;;;;;;;;;;;;;24.23;57.33;99640.28;2074163;28;20178;-55
2022/06/27 00:03:47;;;;;;;;;;;;;;;24.23;57.27;99634.78;2073523;28;20028;-54
2022/06/27 00:04:48;;;;;;;;;;;;;;;24.23;57.37;99637.53;2078296;28;20011;-55
2022/06/27 00:05:48;;;;;;;;;;;;;;;24.23;57.29;99634.78;2069432;28;20290;-55
2022/06/27 00:06:48;;;;;;;;;;;;;;;24.22;57.27;99634.97;2067692;28;20457;-55
2022/06/27 00:07:48;;;;;;;;;;;;;;;24.22;57.26;99635.81;2074780;28;19916;-55
2022/06/27 00:08:49;;;;;;;;;;;;;;;24.22;57.31;99633.06;2079162;28;20320;-55
2022/06/27 00:09:49;;;;;;;;;;;;;;;24.21;57.43;99634.13;2075342;28;19920;-55
2022/06/27 00:10:50;;;;;;;;;;;;;;;24.21;57.27;99625.84;2077209;28;19916;-55
2022/06/27 00:11:50;;;;;;;;;;;;;;;24.22;57.32;99621.19;2074081;28;20649;-53
2022/06/27 00:12:50;;;;;;;;;;;;;;;24.21;57.33;99614.84;2075087;28;20035;-53
2022/06/27 00:13:51;;;;;;;;;;;;;;;24.22;57.42;99619.28;2071084;28;20103;-53
2022/06/27 00:14:51;;;;;;;;;;;;;;;24.22;57.31;99612.94;2075050;28;20024;-53
2022/06/27 00:15:51;;;;;;;;;;;;;;;24.20;57.47;99607.59;2076419;28;20003;-53
2022/06/27 00:16:52;;;;;;;;;;;;;;;24.20;57.41;99615.88;2076871;28;19909;-53
2022/06/27 00:17:52;;;;;;;;;;;;;;;24.20;57.30;99620.53;2074600;28;20391;-53
2022/06/27 00:18:52;;;;;;;;;;;;;;;24.20;57.43;99613.13;2075669;28;19920;-53
2022/06/27 00:19:53;;;;;;;;;;;;;;;24.20;57.39;99621.38;2074504;28;20279;-53
2022/06/27 00:20:53;;;;;;;;;;;;;;;24.20;57.27;99612.28;2081268;28;19920;-63
2022/06/27 00:21:54;;;;;;;;;;;;;;;24.20;57.40;99613.13;2075385;28;20565;-53
2022/06/27 00:22:54;;;;;;;;;;;;;;;24.18;57.30;99609.72;2073860;28;19966;-53
2022/06/27 00:23:55;;;;;;;;;;;;;;;24.19;57.39;99608.66;2072946;28;19959;-53
2022/06/27 00:24:55;;;;;;;;;;;;;;;24.18;57.38;99601.47;2074715;28;19917;-53
2022/06/27 00:25:56;;;;;;;;;;;;;;;24.19;57.41;99605.91;2076126;28;20011;-53
2022/06/27 00:26:56;;;;;;;;;;;;;;;24.18;57.39;99595.97;2072353;28;19927;-53
2022/06/27 00:27:56;;;;;;;;;;;;;;;24.19;57.30;99600.41;2075921;28;20457;-55
2022/06/27 00:28:56;;;;;;;;;;;;;;;24.18;57.39;99591.31;2073039;28;20475;-55
2022/06/27 00:29:57;;;;;;;;;;;;;;;24.18;57.23;99593.22;2073383;28;20402;-55
2022/06/27 00:30:57;;;;;;;;;;;;;;;24.19;57.28;99586.63;2076021;28;19923;-55
2022/06/27 00:31:58;;;;;;;;;;;;;;;24.18;57.19;99585.78;2074072;28;20228;-55
2022/06/27 00:32:58;;;;;;;;;;;;;;;24.18;57.30;99583.03;2073569;28;19943;-55
2022/06/27 00:33:59;;;;;;;;;;;;;;;24.18;57.30;99584.94;2081698;28;19909;-54
2022/06/27 00:34:59;;;;;;;;;;;;;;;24.20;57.24;99580.06;2074153;28;20249;-55
2022/06/27 00:35:59;;;;;;;;;;;;;;;24.19;57.26;99570.13;2076589;28;19912;-55
2022/06/27 00:37:00;;;;;;;;;;;;;;;24.19;57.36;99572.88;2072978;28;19971;-54
2022/06/27 00:38:00;;;;;;;;;;;;;;;24.20;57.33;99570.97;2074601;28;20314;-55
2022/06/27 00:39:01;;;;;;;;;;;;;;;24.19;57.43;99583.88;2072991;28;19956;-54
2022/06/27 00:40:01;;;;;;;;;;;;;;;24.19;57.37;99583.88;2078090;28;20812;-54
2022/06/27 00:41:02;;;;;;;;;;;;;;;24.20;57.29;99582.81;2071752;28;19924;-55
2022/06/27 00:42:03;;;;;;;;;;;;;;;24.20;57.29;99580.06;2076418;28;19917;-55
2022/06/27 00:43:03;;;;;;;;;;;;;;;24.20;57.40;99581.97;2074284;28;19928;-55
2022/06/27 00:44:03;;;;;;;;;;;;;;;24.20;57.30;99588.31;2076201;28;19909;-56
2022/06/27 00:45:04;;;;;;;;;;;;;;;24.18;57.36;99593.22;2074059;28;19966;-55
2022/06/27 00:46:05;;;;;;;;;;;;;;;24.20;57.41;99593.84;2075817;28;19921;-55
2022/06/27 00:47:06;;;;;;;;;;;;;;;24.19;57.44;99603.16;2075360;28;19909;-55
2022/06/27 00:48:06;;;;;;;;;;;;;;;24.20;57.42;99607.59;2075063;28;19995;-55
2022/06/27 00:49:07;;;;;;;;;;;;;;;24.18;57.29;99610.56;2075304;28;19947;-55
2022/06/27 00:50:07;;;;;;;;;;;;;;;24.19;57.37;99611.41;2077354;28;20385;-55
2022/06/27 00:51:09;;;;;;;;;;;;;;;24.18;57.52;99609.72;2076590;28;19921;-55
2022/06/27 00:52:12;;;;;;;;;;;;;;;24.18;57.32;99606.97;2076859;28;20483;-55
2022/06/27 00:53:13;;;;;;;;;;;;;;;24.17;57.44;99608.00;2076203;28;19945;-55
2022/06/27 00:54:13;;;;;;;;;;;;;;;24.18;57.49;99615.22;2074938;28;20003;-55
2022/06/27 00:55:15;;;;;;;;;;;;;;;24.18;57.44;99615.22;2071926;28;19917;-55
2022/06/27 00:56:15;;;;;;;;;;;;;;;24.17;57.26;99617.09;2073542;28;19921;-55
2022/06/27 00:57:17;;;;;;;;;;;;;;;24.16;57.33;99612.66;2066812;28;20534;-55
2022/06/27 00:58:17;;;;;;;;;;;;;;;24.17;57.30;99608.00;2066206;28;19932;-55
2022/06/27 00:59:18;;;;;;;;;;;;;;;24.17;57.29;99613.50;2077332;28;19952;-55
2022/06/27 01:00:18;;;;;;;;;;;;;;;24.16;57.31;99609.91;2079593;28;20433;-54
2022/06/27 01:01:19;;;;;;;;;;;;;;;24.16;57.37;99612.66;2076546;28;20339;-55
2022/06/27 01:02:19;;;;;;;;;;;;;;;24.16;57.36;99617.31;2077798;28;19917;-55
2022/06/27 01:03:19;;;;;;;;;;;;;;;24.16;57.34;99618.19;2067120;28;19909;-55
2022/06/27 01:04:20;;;;;;;;;;;;;;;24.16;57.51;99618.19;2067857;28;20437;-55
2022/06/27 01:05:21;;;;;;;;;;;;;;;24.16;57.31;99622.84;2077431;28;19913;-55
2022/06/27 01:06:21;;;;;;;;;;;;;;;24.16;57.28;99623.69;2075663;28;20330;-55
2022/06/27 01:07:21;;;;;;;;;;;;;;;24.16;57.29;99631.09;2076506;28;20039;-55
2022/06/27 01:08:25;;;;;;;;;;;;;;;24.16;57.29;99628.34;2076971;28;19909;-55
2022/06/27 01:09:25;;;;;;;;;;;;;;;24.17;57.22;99635.53;2075187;28;19929;-55
2022/06/27 01:10:25;;;;;;;;;;;;;;;24.16;57.28;99639.34;2077779;28;19950;-55
2022/06/27 01:11:26;;;;;;;;;;;;;;;24.16;57.25;99637.44;2074529;28;20407;-55
2022/06/27 01:12:26;;;;;;;;;;;;;;;24.16;57.31;99634.69;2076951;28;19924;-55
2022/06/27 01:13:28;;;;;;;;;;;;;;;24.16;57.22;99642.97;2075489;28;19920;-55
2022/06/27 01:14:29;;;;;;;;;;;;;;;24.16;57.26;99639.34;2075330;28;20252;-55
2022/06/27 01:15:29;;;;;;;;;;;;;;;24.16;57.26;99645.72;2077133;28;19920;-56
2022/06/27 01:16:29;;;;;;;;;;;;;;;24.16;57.25;99651.22;2075213;28;19944;-55
2022/06/27 01:17:30;;;;;;;;;;;;;;;24.16;57.38;99653.13;2078179;28;19938;-55
2022/06/27 01:18:30;;;;;;;;;;;;;;;24.17;57.33;99660.31;2072691;28;19921;-55
2022/06/27 01:19:30;;;;;;;;;;;;;;;24.17;57.47;99663.06;2074004;28;20321;-55
2022/06/27 01:20:31;;;;;;;;;;;;;;;24.16;57.43;99661.38;2070242;28;19917;-55
2022/06/27 01:21:33;;;;;;;;;;;;;;;24.17;57.43;99663.06;2074363;28;19923;-55
2022/06/27 01:22:33;;;;;;;;;;;;;;;24.16;57.37;99666.88;2073073;28;19959;-55
2022/06/27 01:23:35;;;;;;;;;;;;;;;24.16;57.37;99661.38;2075042;28;19917;-55
2022/06/27 01:24:36;;;;;;;;;;;;;;;24.16;57.46;99666.88;2073632;28;19917;-55
2022/06/27 01:25:36;;;;;;;;;;;;;;;24.16;57.58;99658.63;2076625;28;19920;-55
2022/06/27 01:26:36;;;;;;;;;;;;;;;24.16;57.46;99664.13;2075739;28;19971;-55
2022/06/27 01:27:37;;;;;;;;;;;;;;;24.17;57.56;99663.06;2072643;28;19917;-54
2022/06/27 01:28:37;;;;;;;;;;;;;;;24.15;57.62;99659.66;2075923;28;20338;-55
2022/06/27 01:29:38;;;;;;;;;;;;;;;24.16;57.51;99664.13;2073488;28;19960;-55
2022/06/27 01:30:38;;;;;;;;;;;;;;;24.15;57.41;99660.50;2073315;28;19925;-55
2022/06/27 01:31:38;;;;;;;;;;;;;;;24.14;57.47;99658.81;2075681;28;20325;-55
2022/06/27 01:32:39;;;;;;;;;;;;;;;24.14;57.34;99661.56;2067020;28;19921;-55
2022/06/27 01:33:39;;;;;;;;;;;;;;;24.14;57.47;99664.31;2068518;28;19905;-55
2022/06/27 01:34:39;;;;;;;;;;;;;;;24.14;57.28;99663.47;2074805;28;20499;-55
2022/06/27 01:35:40;;;;;;;;;;;;;;;24.14;57.38;99668.97;2076335;28;20275;-55
2022/06/27 01:36:43;;;;;;;;;;;;;;;24.13;57.42;99662.63;2078160;28;20456;-55
2022/06/27 01:37:44;;;;;;;;;;;;;;;24.13;57.39;99665.38;2073580;28;20098;-55
2022/06/27 01:38:44;;;;;;;;;;;;;;;24.12;57.42;99660.06;2077490;28;20425;-55
2022/06/27 01:39:44;;;;;;;;;;;;;;;24.12;57.32;99671.91;2076977;28;19960;-55
2022/06/27 01:40:45;;;;;;;;;;;;;;;24.12;57.47;99660.06;2072983;28;19917;-55
2022/06/27 01:41:49;;;;;;;;;;;;;;;24.11;57.41;99655.59;2077913;28;19965;-55
2022/06/27 01:42:49;;;;;;;;;;;;;;;24.12;57.43;99663.66;2072786;28;20335;-56
2022/06/27 01:43:50;;;;;;;;;;;;;;;24.12;57.35;99660.06;2077925;28;19959;-55
2022/06/27 01:44:50;;;;;;;;;;;;;;;24.13;57.50;99661.75;2076425;28;19923;-55
2022/06/27 01:45:50;;;;;;;;;;;;;;;24.12;57.35;99660.06;2081141;28;19912;-55
2022/06/27 01:46:55;;;;;;;;;;;;;;;24.13;57.38;99659.00;2076585;28;20257;-53
2022/06/27 01:47:55;;;;;;;;;;;;;;;24.11;57.34;99664.72;2073631;28;19913;-53
2022/06/27 01:48:56;;;;;;;;;;;;;;;24.13;57.45;99659.00;2073194;28;20238;-53
2022/06/27 01:49:56;;;;;;;;;;;;;;;24.13;57.40;99656.25;2076092;28;19921;-52
2022/06/27 01:50:58;;;;;;;;;;;;;;;24.11;57.25;99663.88;2076501;28;20578;-53
2022/06/27 01:52:00;;;;;;;;;;;;;;;24.12;57.41;99657.31;2074968;28;19917;-53
2022/06/27 01:53:02;;;;;;;;;;;;;;;24.13;57.42;99662.63;2076150;28;19963;-53
2022/06/27 01:54:03;;;;;;;;;;;;;;;24.13;57.35;99667.25;2075695;28;19917;-53
2022/06/27 01:55:03;;;;;;;;;;;;;;;24.12;57.33;99666.41;2076956;28;19920;-53
2022/06/27 01:56:04;;;;;;;;;;;;;;;24.12;57.34;99671.91;2072580;28;19956;-52
2022/06/27 01:57:05;;;;;;;;;;;;;;;24.13;57.45;99667.25;2075807;28;19927;-53
2022/06/27 01:58:05;;;;;;;;;;;;;;;24.13;57.38;99667.25;2075633;28;19921;-53
2022/06/27 01:59:05;;;;;;;;;;;;;;;24.12;57.42;99663.66;2076696;28;19917;-55
2022/06/27 02:00:06;;;;;;;;;;;;;;;24.12;57.43;99669.16;2075464;28;19916;-55
2022/06/27 02:01:07;;;;;;;;;;;;;;;24.12;57.42;99677.41;2077268;28;19960;-55
2022/06/27 02:02:07;;;;;;;;;;;;;;;24.13;57.43;99672.75;2076166;28;19916;-55
2022/06/27 02:03:07;;;;;;;;;;;;;;;24.12;57.41;99688.44;2077536;28;19916;-54
2022/06/27 02:04:09;;;;;;;;;;;;;;;24.14;57.48;99693.75;2074340;28;20062;-55
2022/06/27 02:05:09;;;;;;;;;;;;;;;24.13;57.45;99700.28;2074786;28;19948;-55
2022/06/27 02:06:10;;;;;;;;;;;;;;;24.13;57.47;99700.28;2075953;28;20060;-55
2022/06/27 02:07:11;;;;;;;;;;;;;;;24.11;57.49;99703.25;2071792;28;19924;-55
2022/06/27 02:08:11;;;;;;;;;;;;;;;24.12;57.44;99709.63;2075761;28;20131;-55
2022/06/27 02:09:13;;;;;;;;;;;;;;;24.11;57.48;99703.25;2076599;28;19944;-54
2022/06/27 02:10:13;;;;;;;;;;;;;;;24.12;57.42;99706.88;2076353;28;20248;-55
2022/06/27 02:11:14;;;;;;;;;;;;;;;24.11;57.46;99710.69;2077068;28;19928;-54
2022/06/27 02:12:21;;;;;;;;;;;;;;;24.11;57.43;99710.69;2073838;28;20337;-55
2022/06/27 02:13:21;;;;;;;;;;;;;;;24.11;57.41;99707.94;2077010;28;19921;-55
2022/06/27 02:14:22;;;;;;;;;;;;;;;24.10;57.36;99714.47;2076769;28;19909;-54
2022/06/27 02:15:23;;;;;;;;;;;;;;;24.10;57.43;99715.31;2072140;28;19913;-55
2022/06/27 02:16:24;;;;;;;;;;;;;;;24.09;57.51;99718.28;2077289;28;19936;-55
2022/06/27 02:17:25;;;;;;;;;;;;;;;24.09;57.21;99715.50;2074318;28;19924;-54
2022/06/27 02:18:25;;;;;;;;;;;;;;;24.10;57.41;99717.22;2073182;28;19966;-55
2022/06/27 02:19:25;;;;;;;;;;;;;;;24.09;57.42;99716.38;2074266;28;19990;-55
2022/06/27 02:20:26;;;;;;;;;;;;;;;24.09;57.34;99715.50;2077411;28;19918;-55
2022/06/27 02:21:27;;;;;;;;;;;;;;;24.08;57.43;99703.66;2076245;28;19924;-57
2022/06/27 02:22:28;;;;;;;;;;;;;;;24.09;57.55;99699.00;2075313;28;19923;-55
2022/06/27 02:23:29;;;;;;;;;;;;;;;24.08;57.31;99694.53;2076644;28;20031;-54
2022/06/27 02:24:29;;;;;;;;;;;;;;;24.08;57.38;99694.53;2073252;28;20081;-55
2022/06/27 02:25:29;;;;;;;;;;;;;;;24.09;57.43;99696.25;2077470;28;20215;-55
2022/06/27 02:26:30;;;;;;;;;;;;;;;24.09;57.42;99691.59;2075621;28;19920;-55
2022/06/27 02:27:33;;;;;;;;;;;;;;;24.08;57.46;99708.28;2074609;28;20884;-55
2022/06/27 02:28:34;;;;;;;;;;;;;;;24.07;57.39;99704.69;2077423;28;20011;-55
2022/06/27 02:29:34;;;;;;;;;;;;;;;24.09;57.28;99704.50;2075035;28;19925;-56
2022/06/27 02:30:34;;;;;;;;;;;;;;;24.09;57.46;99710.00;2078903;28;19921;-55
2022/06/27 02:31:43;;;;;;;;;;;;;;;24.08;57.33;99711.03;2074097;28;20003;-55
2022/06/27 02:32:43;;;;;;;;;;;;;;;24.09;57.34;99715.50;2075629;28;20049;-56
2022/06/27 02:33:45;;;;;;;;;;;;;;;24.09;57.31;99710.00;2075315;28;20334;-55
2022/06/27 02:34:48;;;;;;;;;;;;;;;24.09;57.20;99712.75;2072117;28;20520;-55
2022/06/27 02:35:49;;;;;;;;;;;;;;;24.09;57.43;99710.00;2073505;28;19921;-55
2022/06/27 02:36:49;;;;;;;;;;;;;;;24.09;57.39;99715.50;2073431;28;19924;-55
2022/06/27 02:37:50;;;;;;;;;;;;;;;24.09;57.46;99712.75;2073292;28;19979;-55
2022/06/27 02:38:52;;;;;;;;;;;;;;;24.09;57.43;99730.13;2070830;28;19920;-55
2022/06/27 02:39:54;;;;;;;;;;;;;;;24.09;57.49;99726.53;2073768;28;19960;-55
2022/06/27 02:40:57;;;;;;;;;;;;;;;24.09;57.51;99735.63;2073721;28;19927;-55
2022/06/27 02:41:59;;;;;;;;;;;;;;;24.09;57.43;99732.03;2068407;28;20005;-55
2022/06/27 02:43:00;;;;;;;;;;;;;;;24.09;57.44;99732.03;2077255;28;20382;-55
2022/06/27 02:44:07;;;;;;;;;;;;;;;24.09;57.31;99737.53;2075499;28;19917;-55
2022/06/27 02:45:08;;;;;;;;;;;;;;;24.09;57.47;99737.53;2072829;28;20327;-55
2022/06/27 02:46:08;;;;;;;;;;;;;;;24.08;57.40;99741.31;2074021;28;19927;-54
2022/06/27 02:47:09;;;;;;;;;;;;;;;24.08;57.36;99746.84;2077765;28;20166;-55
2022/06/27 02:48:10;;;;;;;;;;;;;;;24.08;57.40;99744.09;2072287;28;19917;-55
2022/06/27 02:49:10;;;;;;;;;;;;;;;24.07;57.66;99742.38;2073468;28;20066;-55
2022/06/27 02:50:11;;;;;;;;;;;;;;;24.08;57.40;99746.84;2076586;28;19924;-52
2022/06/27 02:51:14;;;;;;;;;;;;;;;24.07;57.37;99742.38;2076010;28;19923;-53
2022/06/27 02:52:41;;;;;;;;;;;;;;;24.08;57.53;99744.09;2072409;28;19916;-53
2022/06/27 02:54:02;;;;;;;;;;;;;;;24.07;57.40;99745.97;2072905;28;20299;-54
2022/06/27 02:55:04;;;;;;;;;;;;;;;24.07;57.44;99742.38;2073626;28;20038;-53
2022/06/27 02:56:09;;;;;;;;;;;;;;;24.06;57.49;99744.28;2071781;28;19931;-53
2022/06/27 02:57:15;;;;;;;;;;;;;;;24.06;57.53;99737.94;2073698;28;20182;-53
2022/06/27 02:58:18;;;;;;;;;;;;;;;24.06;57.46;99735.19;2076844;28;20019;-53
2022/06/27 02:59:28;;;;;;;;;;;;;;;24.04;57.51;99740.88;2069756;28;20041;-53
2022/06/27 03:00:29;;;;;;;;;;;;;;;24.05;57.58;99731.56;2074769;28;20287;-53
2022/06/27 03:01:33;;;;;;;;;;;;;;;24.05;57.39;99730.69;2070144;28;20056;-53
2022/06/27 03:02:35;;;;;;;;;;;;;;;24.04;57.35;99729.00;2073823;28;20416;-53
2022/06/27 03:03:36;;;;;;;;;;;;;;;24.05;57.43;99726.03;2076798;28;20004;-53
2022/06/27 03:04:37;;;;;;;;;;;;;;;24.05;57.38;99730.69;2081651;28;19977;-53
2022/06/27 03:05:53;;;;;;;;;;;;;;;24.06;57.38;99718.66;2076259;28;19917;-53
2022/06/27 03:06:54;;;;;;;;;;;;;;;24.05;57.39;99714.19;2070201;28;20011;-53
2022/06/27 03:07:54;;;;;;;;;;;;;;;24.05;57.39;99726.03;2074126;28;19986;-52
2022/06/27 03:08:55;;;;;;;;;;;;;;;24.05;57.35;99723.28;2065615;28;20040;-52
2022/06/27 03:10:01;;;;;;;;;;;;;;;24.05;57.23;99730.69;2069152;28;20172;-53
2022/06/27 03:11:01;;;;;;;;;;;;;;;24.06;57.32;99729.69;2069145;28;19991;-53
2022/06/27 03:12:01;;;;;;;;;;;;;;;24.06;57.30;99721.41;2074266;28;19916;-53
2022/06/27 03:13:02;;;;;;;;;;;;;;;24.06;57.32;99724.16;2074876;28;19912;-53
2022/06/27 03:14:02;;;;;;;;;;;;;;;24.07;57.49;99731.38;2074002;28;19955;-53
2022/06/27 03:15:03;;;;;;;;;;;;;;;24.05;57.30;99728.78;2069146;28;20015;-53
2022/06/27 03:16:04;;;;;;;;;;;;;;;24.05;57.34;99727.94;2067736;28;19921;-53
2022/06/27 03:17:04;;;;;;;;;;;;;;;24.06;57.53;99729.69;2073944;28;19909;-52
2022/06/27 03:18:05;;;;;;;;;;;;;;;24.05;57.43;99725.19;2074984;28;19920;-53
2022/06/27 03:19:05;;;;;;;;;;;;;;;24.06;57.42;99732.44;2073667;28;20035;-53
2022/06/27 03:20:06;;;;;;;;;;;;;;;24.05;57.56;99736.22;2074259;28;19917;-53
2022/06/27 03:21:06;;;;;;;;;;;;;;;24.05;57.37;99731.56;2075092;28;20334;-53
2022/06/27 03:22:06;;;;;;;;;;;;;;;24.05;57.46;99726.03;2076096;28;20787;-53
2022/06/27 03:23:07;;;;;;;;;;;;;;;24.05;57.45;99730.69;2068914;28;19920;-53
2022/06/27 03:24:07;;;;;;;;;;;;;;;24.06;57.45;99718.66;2074136;28;20213;-54
2022/06/27 03:25:08;;;;;;;;;;;;;;;24.03;57.50;99711.59;2075983;28;19920;-53
2022/06/27 03:26:08;;;;;;;;;;;;;;;24.04;57.47;99704.22;2068678;28;20528;-53
2022/06/27 03:27:10;;;;;;;;;;;;;;;24.04;57.50;99695.97;2069621;28;19938;-53
2022/06/27 03:28:10;;;;;;;;;;;;;;;24.04;57.50;99693.22;2064999;28;19921;-53
2022/06/27 03:29:10;;;;;;;;;;;;;;;24.04;57.43;99679.44;2074995;28;20096;-53
2022/06/27 03:30:11;;;;;;;;;;;;;;;24.03;57.47;99678.56;2074229;28;20014;-53
2022/06/27 03:31:11;;;;;;;;;;;;;;;24.03;57.44;99677.72;2071470;28;19921;-52
2022/06/27 03:32:12;;;;;;;;;;;;;;;24.03;57.50;99677.72;2074158;28;19986;-55
2022/06/27 03:33:12;;;;;;;;;;;;;;;24.02;57.45;99687.03;2075643;28;19932;-55
2022/06/27 03:34:12;;;;;;;;;;;;;;;24.01;57.46;99694.47;2075529;28;19923;-54
2022/06/27 03:35:13;;;;;;;;;;;;;;;24.02;57.44;99698.06;2076418;28;20623;-54
2022/06/27 03:36:13;;;;;;;;;;;;;;;24.02;57.37;99698.06;2073749;28;19908;-55
2022/06/27 03:37:13;;;;;;;;;;;;;;;24.01;57.43;99696.34;2073515;28;19951;-55
2022/06/27 03:38:14;;;;;;;;;;;;;;;24.02;57.43;99711.81;2070157;28;19928;-55
2022/06/27 03:39:14;;;;;;;;;;;;;;;24.02;57.33;99709.06;2069540;28;19920;-55
2022/06/27 03:40:15;;;;;;;;;;;;;;;24.02;57.42;99717.31;2077103;28;20670;-55
2022/06/27 03:41:15;;;;;;;;;;;;;;;24.02;57.41;99711.81;2076708;28;19923;-55
2022/06/27 03:42:15;;;;;;;;;;;;;;;24.01;57.44;99712.84;2074777;28;20138;-55
2022/06/27 03:43:16;;;;;;;;;;;;;;;24.02;57.42;99717.31;2071180;28;19939;-55
2022/06/27 03:44:16;;;;;;;;;;;;;;;24.02;57.43;99720.94;2071660;28;19921;-55
2022/06/27 03:45:17;;;;;;;;;;;;;;;24.02;57.35;99722.84;2076264;28;19986;-55
2022/06/27 03:46:17;;;;;;;;;;;;;;;24.02;57.35;99725.59;2071611;28;19944;-53
2022/06/27 03:47:17;;;;;;;;;;;;;;;24.02;57.30;99726.44;2076750;28;19920;-52
2022/06/27 03:50:55;;;;;;;;;;;;;;;24.03;57.47;99738.28;2065272;28;19964;-52
2022/06/27 03:51:56;;;;;;;;;;;;;;;24.03;57.48;99746.56;2068038;28;20143;-53
2022/06/27 03:52:56;;;;;;;;;;;;;;;24.03;57.40;99752.06;2066517;28;19916;-53
2022/06/27 03:53:57;;;;;;;;;;;;;;;24.03;57.36;99746.56;2063935;28;19910;-52
2022/06/27 03:54:57;;;;;;;;;;;;;;;24.02;57.52;99747.63;2071903;28;19921;-52
2022/06/27 03:55:57;;;;;;;;;;;;;;;24.03;57.49;99758.41;2071727;28;20348;-53
2022/06/27 03:56:58;;;;;;;;;;;;;;;24.02;57.56;99748.47;2071906;28;20422;-53
2022/06/27 03:57:58;;;;;;;;;;;;;;;24.02;57.59;99742.09;2066200;28;20335;-52
2022/06/27 03:58:59;;;;;;;;;;;;;;;24.02;57.51;99753.97;2061555;28;20580;-53
2022/06/27 03:59:59;;;;;;;;;;;;;;;24.02;57.56;99753.97;2068635;28;20805;-53
2022/06/27 04:01:01;;;;;;;;;;;;;;;24.01;57.47;99754.16;2066815;28;19917;-53
2022/06/27 04:02:01;;;;;;;;;;;;;;;24.02;57.56;99753.13;2067224;28;19928;-53
2022/06/27 04:03:01;;;;;;;;;;;;;;;24.02;57.50;99761.38;2066320;28;20257;-53
2022/06/27 04:04:02;;;;;;;;;;;;;;;24.02;57.50;99759.47;2066780;28;19917;-53
2022/06/27 04:05:03;;;;;;;;;;;;;;;24.02;57.50;99766.88;2065074;28;19917;-52
2022/06/27 04:06:03;;;;;;;;;;;;;;;24.01;57.52;99762.41;2063024;28;20410;-53
2022/06/27 04:07:03;;;;;;;;;;;;;;;24.01;57.50;99762.41;2064829;28;19917;-53
2022/06/27 04:08:04;;;;;;;;;;;;;;;24.00;57.50;99761.56;2073186;28;19909;-53
2022/06/27 04:09:04;;;;;;;;;;;;;;;24.00;57.58;99768.97;2065608;28;20572;-52
2022/06/27 04:10:05;;;;;;;;;;;;;;;24.01;57.65;99767.91;2070518;28;20027;-53
2022/06/27 04:11:05;;;;;;;;;;;;;;;23.99;57.55;99764.53;2066883;28;20354;-51
2022/06/27 04:12:05;;;;;;;;;;;;;;;24.00;57.59;99771.72;2069956;28;20778;-52
2022/06/27 04:13:06;;;;;;;;;;;;;;;24.00;57.59;99777.22;2065001;28;19916;-52
2022/06/27 04:14:06;;;;;;;;;;;;;;;23.99;57.56;99775.53;2067911;28;20295;-53
2022/06/27 04:15:07;;;;;;;;;;;;;;;23.99;57.52;99781.03;2068079;28;19967;-53
2022/06/27 04:16:07;;;;;;;;;;;;;;;23.99;57.53;99786.53;2070893;28;19960;-53
2022/06/27 04:17:08;;;;;;;;;;;;;;;23.98;57.43;99785.66;2057085;28;19940;-52
2022/06/27 04:18:08;;;;;;;;;;;;;;;23.99;57.38;99786.53;2056417;28;19968;-52
2022/06/27 04:19:09;;;;;;;;;;;;;;;23.99;57.50;99801.16;2066073;28;19913;-53
2022/06/27 04:20:10;;;;;;;;;;;;;;;23.98;57.45;99795.81;2064560;28;19915;-53
2022/06/27 04:21:10;;;;;;;;;;;;;;;23.98;57.43;99790.31;2067956;28;19916;-52
2022/06/27 04:22:11;;;;;;;;;;;;;;;23.99;57.48;99792.03;2065695;28;19986;-55
2022/06/27 04:23:11;;;;;;;;;;;;;;;23.98;57.40;99795.81;2069787;28;19939;-55
2022/06/27 04:24:12;;;;;;;;;;;;;;;23.98;57.43;99804.09;2066972;28;19906;-55
2022/06/27 04:25:12;;;;;;;;;;;;;;;23.99;57.46;99803.06;2072942;28;19966;-55
2022/06/27 04:26:12;;;;;;;;;;;;;;;23.99;57.51;99808.56;2071597;28;20240;-55
2022/06/27 04:27:13;;;;;;;;;;;;;;;23.99;57.36;99814.06;2066947;28;19964;-55
2022/06/27 04:28:14;;;;;;;;;;;;;;;23.99;57.48;99814.06;2071545;28;19921;-55
2022/06/27 04:29:14;;;;;;;;;;;;;;;23.98;57.29;99812.34;2066685;28;19924;-55
2022/06/27 04:30:18;;;;;;;;;;;;;;;23.99;57.63;99811.31;2067081;28;20604;-55
2022/06/27 04:31:18;;;;;;;;;;;;;;;23.98;57.54;99815.09;2066274;28;20207;-55
2022/06/27 04:32:20;;;;;;;;;;;;;;;23.98;57.58;99813.19;2067621;28;20362;-54
2022/06/27 04:33:20;;;;;;;;;;;;;;;23.98;57.49;99806.84;2075719;28;19920;-54
2022/06/27 04:34:20;;;;;;;;;;;;;;;23.99;57.52;99814.06;2072814;28;19932;-54
2022/06/27 04:35:21;;;;;;;;;;;;;;;23.99;57.56;99814.06;2066342;28;19948;-54
2022/06/27 04:36:21;;;;;;;;;;;;;;;23.97;57.62;99806.00;2068627;28;20337;-54
2022/06/27 04:37:22;;;;;;;;;;;;;;;23.98;57.66;99801.34;2069459;28;19956;-55
2022/06/27 04:38:22;;;;;;;;;;;;;;;23.97;57.58;99792.22;2073473;28;20517;-55
2022/06/27 04:39:23;;;;;;;;;;;;;;;23.97;57.55;99794.97;2070227;28;19924;-55
2022/06/27 04:40:23;;;;;;;;;;;;;;;23.97;57.64;99794.97;2067203;28;19913;-55
2022/06/27 04:41:25;;;;;;;;;;;;;;;23.96;57.53;99799.63;2075845;28;20223;-55
2022/06/27 04:42:26;;;;;;;;;;;;;;;23.96;57.63;99799.63;2067706;28;20236;-55
2022/06/27 04:43:27;;;;;;;;;;;;;;;23.97;57.64;99811.50;2067676;28;19921;-55
2022/06/27 04:44:27;;;;;;;;;;;;;;;23.96;57.62;99805.13;2068339;28;20675;-55
2022/06/27 04:45:28;;;;;;;;;;;;;;;23.96;57.64;99807.06;2069131;28;20284;-54
2022/06/27 04:46:28;;;;;;;;;;;;;;;23.95;57.72;99806.16;2068587;28;19924;-55
2022/06/27 04:47:29;;;;;;;;;;;;;;;23.96;57.62;99809.81;2073038;28;19919;-55
2022/06/27 04:48:32;;;;;;;;;;;;;;;23.95;57.57;99811.66;2067233;28;20294;-54
2022/06/27 04:49:33;;;;;;;;;;;;;;;23.95;57.65;99808.91;2069232;28;20483;-55
2022/06/27 04:50:36;;;;;;;;;;;;;;;23.95;57.63;99806.16;2070795;28;19927;-55
2022/06/27 04:51:37;;;;;;;;;;;;;;;23.95;57.65;99808.91;2074444;28;19918;-55
2022/06/27 04:52:38;;;;;;;;;;;;;;;23.94;57.64;99806.38;2076849;28;19916;-54
2022/06/27 04:53:38;;;;;;;;;;;;;;;23.94;57.63;99807.22;2075580;28;20389;-55
2022/06/27 04:54:39;;;;;;;;;;;;;;;23.93;57.55;99811.03;2074622;28;19940;-55
2022/06/27 04:55:39;;;;;;;;;;;;;;;23.94;57.59;99818.25;2073415;28;20299;-54
2022/06/27 04:56:42;;;;;;;;;;;;;;;23.93;57.47;99819.28;2077172;28;19960;-54
2022/06/27 04:57:44;;;;;;;;;;;;;;;23.94;57.48;99840.25;2080635;28;20003;-55
2022/06/27 04:58:44;;;;;;;;;;;;;;;23.94;57.55;99845.75;2076922;28;20035;-55
2022/06/27 04:59:45;;;;;;;;;;;;;;;23.95;57.50;99835.59;2074358;28;19924;-55
2022/06/27 05:00:46;;;;;;;;;;;;;;;23.93;57.50;99838.56;2067674;28;19920;-55
2022/06/27 05:01:50;;;;;;;;;;;;;;;23.95;57.32;99836.44;2068249;28;20150;-56
2022/06/27 05:02:50;;;;;;;;;;;;;;;23.95;57.44;99835.59;2074660;28;19928;-55
2022/06/27 05:03:50;;;;;;;;;;;;;;;23.93;57.48;99835.81;2077045;28;19917;-55
2022/06/27 05:04:51;;;;;;;;;;;;;;;23.94;57.46;99829.25;2075571;28;20648;-55
2022/06/27 05:05:51;;;;;;;;;;;;;;;23.94;57.50;99825.66;2077081;28;19917;-55
2022/06/27 05:06:51;;;;;;;;;;;;;;;23.94;57.56;99828.41;2074120;28;19921;-55
2022/06/27 05:07:52;;;;;;;;;;;;;;;23.94;57.43;99826.50;2076343;28;19909;-54
2022/06/27 05:08:52;;;;;;;;;;;;;;;23.93;57.59;99833.06;2073937;28;19917;-55
2022/06/27 05:09:52;;;;;;;;;;;;;;;23.94;57.55;99834.75;2075167;28;19917;-55
2022/06/27 05:10:53;;;;;;;;;;;;;;;23.94;57.54;99843.00;2075275;28;19916;-54
2022/06/27 05:11:54;;;;;;;;;;;;;;;23.94;57.59;99844.91;2073219;28;20243;-55
2022/06/27 05:12:54;;;;;;;;;;;;;;;23.94;57.63;99854.03;2076121;28;19974;-55
2022/06/27 05:13:54;;;;;;;;;;;;;;;23.94;57.58;99856.78;2075399;28;19969;-54
2022/06/27 05:14:55;;;;;;;;;;;;;;;23.94;57.57;99854.03;2075682;28;20318;-54
2022/06/27 05:15:55;;;;;;;;;;;;;;;23.94;57.56;99856.78;2076071;28;19919;-54
2022/06/27 05:16:56;;;;;;;;;;;;;;;23.94;57.63;99855.94;2070737;28;20311;-55
2022/06/27 05:17:56;;;;;;;;;;;;;;;23.94;57.68;99856.78;2076748;28;19944;-55
2022/06/27 05:18:57;;;;;;;;;;;;;;;23.93;57.67;99857.84;2077119;28;19955;-55
2022/06/27 05:19:57;;;;;;;;;;;;;;;23.93;57.67;99866.09;2076339;28;19928;-55
2022/06/27 05:20:58;;;;;;;;;;;;;;;23.94;57.73;99870.53;2077175;28;19917;-54